Time;durP1;ratioP1;P1;durP2;ratioP2;P2;SDS_P1;SDS_P2;PMS_P1;PMS_P2;Temp;Humidity;BMP_temperature;BMP_pressure;BME280_temperature;BME280_humidity;BME280_pressure;Samples;Min_cycle;Max_cycle;Signal;HPM_P1;HPM_P2
2021/07/08 00:00:55;;;;;;;5.20;4.80;;;;;;;16.34;100.00;101340.28;5050924;28;20252;-72
2021/07/08 00:03:23;;;;;;;5.67;5.10;;;;;;;16.29;100.00;101347.50;5046194;28;20607;-72
2021/07/08 00:05:49;;;;;;;5.53;5.00;;;;;;;16.28;100.00;101340.50;5057201;28;20249;-72
2021/07/08 00:08:16;;;;;;;5.43;4.93;;;;;;;16.25;100.00;101341.50;5044611;28;20230;-72
2021/07/08 00:10:46;;;;;;;6.73;5.10;;;;;;;16.21;100.00;101341.66;5049296;28;20203;-72
2021/07/08 00:13:15;;;;;;;5.33;4.83;;;;;;;16.15;100.00;101341.91;5047052;28;20779;-72
2021/07/08 00:15:42;;;;;;;5.13;4.30;;;;;;;16.18;100.00;101336.50;5046880;28;20595;-72
2021/07/08 00:18:11;;;;;;;5.60;4.97;;;;;;;16.08;100.00;101334.22;5044837;28;20691;-73
2021/07/08 00:20:39;;;;;;;5.00;4.60;;;;;;;16.05;100.00;101326.44;5049382;28;20214;-72
2021/07/08 00:23:05;;;;;;;5.27;4.77;;;;;;;16.02;100.00;101326.59;5050279;28;20588;-73
2021/07/08 00:25:33;;;;;;;4.60;4.20;;;;;;;16.00;100.00;101324.91;5048660;28;20229;-72
2021/07/08 00:28:00;;;;;;;6.00;4.90;;;;;;;16.00;100.00;101332.81;5048422;28;20211;-73
2021/07/08 00:30:28;;;;;;;4.90;4.40;;;;;;;15.94;100.00;101327.78;5045414;28;20207;-72
2021/07/08 00:32:54;;;;;;;5.93;5.27;;;;;;;15.93;100.00;101320.81;5041342;28;20217;-74
2021/07/08 00:35:21;;;;;;;5.07;4.67;;;;;;;15.87;100.00;101319.25;5042308;28;20235;-72
2021/07/08 00:37:48;;;;;;;5.77;4.73;;;;;;;15.84;100.00;101319.38;5047410;28;20607;-72
2021/07/08 00:40:15;;;;;;;5.43;4.93;;;;;;;15.75;100.00;101314.47;5046870;28;20556;-72
2021/07/08 00:42:42;;;;;;;5.30;4.80;;;;;;;15.69;100.00;101311.09;5048178;28;20259;-73
2021/07/08 00:45:12;;;;;;;4.90;4.43;;;;;;;15.65;100.00;101313.88;5047366;28;20340;-72
2021/07/08 00:47:40;;;;;;;4.87;4.37;;;;;;;15.58;100.00;101305.38;5036998;28;20230;-72
2021/07/08 00:50:08;;;;;;;5.70;5.20;;;;;;;15.50;100.00;101310.06;5044420;28;20207;-72
2021/07/08 00:52:34;;;;;;;5.10;4.70;;;;;;;15.50;100.00;101304.81;5042276;28;20228;-73
2021/07/08 00:55:01;;;;;;;4.93;4.40;;;;;;;15.45;100.00;101290.97;5046308;28;20226;-72
2021/07/08 00:57:27;;;;;;;5.73;4.70;;;;;;;15.45;100.00;101297.06;5046068;28;20248;-72
2021/07/08 00:59:54;;;;;;;6.07;4.50;;;;;;;15.37;100.00;101298.25;5045105;28;20196;-72
2021/07/08 01:02:22;;;;;;;7.87;4.57;;;;;;;15.33;100.00;101297.50;5046930;28;20557;-73
2021/07/08 01:04:50;;;;;;;4.47;4.07;;;;;;;15.31;100.00;101289.69;5040686;28;20237;-73
2021/07/08 01:07:22;;;;;;;4.90;4.40;;;;;;;15.22;100.00;101297.91;5045544;28;20640;-72
2021/07/08 01:09:50;;;;;;;5.30;4.80;;;;;;;15.21;100.00;101303.19;5042867;28;20204;-72
2021/07/08 01:12:17;;;;;;;4.90;4.50;;;;;;;15.16;100.00;101300.72;5044180;28;20289;-73
2021/07/08 01:14:43;;;;;;;4.83;4.33;;;;;;;15.17;100.00;101296.34;5044778;28;20269;-72
2021/07/08 01:17:11;;;;;;;5.27;4.10;;;;;;;15.17;100.00;101298.97;5045395;28;20208;-72
2021/07/08 01:19:41;;;;;;;5.47;4.70;;;;;;;15.10;100.00;101298.31;5046528;28;20222;-72
2021/07/08 01:22:09;;;;;;;5.30;4.80;;;;;;;15.02;100.00;101297.72;5046604;28;20602;-72
2021/07/08 01:24:35;;;;;;;5.50;4.87;;;;;;;14.99;100.00;101290.81;5048286;28;20220;-73
2021/07/08 01:27:02;;;;;;;5.77;4.90;;;;;;;14.92;100.00;101287.53;5041267;28;20209;-72
2021/07/08 01:29:29;;;;;;;5.07;4.57;;;;;;;14.96;100.00;101294.38;5045082;28;20559;-72
2021/07/08 01:31:56;;;;;;;5.33;4.57;;;;;;;14.95;100.00;101291.81;5049628;28;20205;-73
2021/07/08 01:34:23;;;;;;;5.20;4.70;;;;;;;14.95;100.00;101294.44;5047126;28;20301;-72
2021/07/08 01:36:49;;;;;;;5.53;4.93;;;;;;;14.88;100.00;101292.91;5054892;28;20206;-73
2021/07/08 01:39:19;;;;;;;5.53;5.00;;;;;;;14.80;100.00;101294.97;5047604;28;20207;-73
2021/07/08 01:41:45;;;;;;;5.67;5.17;;;;;;;14.74;100.00;101291.63;5046577;28;20196;-73
2021/07/08 01:44:12;;;;;;;5.60;5.10;;;;;;;14.76;100.00;101300.31;5043909;28;20591;-72
2021/07/08 01:46:39;;;;;;;4.90;4.50;;;;;;;14.72;100.00;101292.56;5049004;28;20203;-73
2021/07/08 01:49:06;;;;;;;5.37;4.87;;;;;;;14.78;100.00;101289.75;5045424;28;20218;-72
2021/07/08 01:51:34;;;;;;;5.53;5.03;;;;;;;14.69;100.00;101290.91;5048121;28;20774;-72
2021/07/08 01:54:02;;;;;;;5.13;4.63;;;;;;;14.69;100.00;101297.94;5042940;28;20923;-72
2021/07/08 01:56:32;;;;;;;5.37;4.87;;;;;;;14.55;100.00;101296.59;5042369;28;20213;-72
2021/07/08 01:58:58;;;;;;;7.10;5.23;;;;;;;14.52;100.00;101303.69;5045678;28;20207;-72
2021/07/08 02:01:25;;;;;;;5.20;4.63;;;;;;;14.61;100.00;101315.69;5048393;28;20215;-72
2021/07/08 02:03:51;;;;;;;5.57;5.07;;;;;;;14.51;100.00;101309.84;5042482;28;20235;-72
2021/07/08 02:06:18;;;;;;;5.80;5.23;;;;;;;14.50;100.00;101321.25;5044385;28;20216;-72
2021/07/08 02:08:45;;;;;;;5.13;4.63;;;;;;;14.49;100.00;101319.53;5046509;28;20718;-72
2021/07/08 02:11:12;;;;;;;5.73;5.17;;;;;;;14.52;100.00;101316.81;5046063;28;20202;-72
2021/07/08 02:13:41;;;;;;;8.10;5.30;;;;;;;14.48;100.00;101316.03;5046609;28;20221;-72
2021/07/08 02:16:09;;;;;;;5.50;4.70;;;;;;;14.62;100.00;101313.03;5044421;28;20215;-72
2021/07/08 02:18:37;;;;;;;6.53;5.13;;;;;;;14.48;100.00;101308.19;5042953;28;20206;-72
2021/07/08 02:21:04;;;;;;;5.67;5.17;;;;;;;14.48;100.00;101316.03;5046688;28;20579;-72
2021/07/08 02:23:31;;;;;;;5.70;5.20;;;;;;;14.44;100.00;101317.06;5047125;28;20695;-74
2021/07/08 02:25:58;;;;;;;7.20;5.60;;;;;;;14.51;100.00;101312.47;5041071;28;20217;-72
2021/07/08 02:28:25;;;;;;;6.80;5.23;;;;;;;14.50;100.00;101319.47;5047440;28;20202;-72
2021/07/08 02:30:53;;;;;;;5.87;5.27;;;;;;;14.52;100.00;101317.66;5042638;28;20221;-72
2021/07/08 02:33:19;;;;;;;5.97;4.97;;;;;;;14.46;100.00;101320.50;5047096;28;20221;-73
2021/07/08 02:35:45;;;;;;;6.43;4.70;;;;;;;14.58;100.00;101317.50;5040501;28;20203;-73
2021/07/08 02:38:12;;;;;;;5.50;5.00;;;;;;;14.58;100.00;101316.63;5044297;28;20587;-72
2021/07/08 02:40:39;;;;;;;5.67;5.07;;;;;;;14.43;100.00;101322.34;5046909;28;20207;-72
2021/07/08 02:43:07;;;;;;;5.60;5.00;;;;;;;14.41;100.00;101318.94;5043969;28;20257;-72
2021/07/08 02:45:37;;;;;;;7.40;5.33;;;;;;;14.36;100.00;101321.69;5045432;28;20750;-73
2021/07/08 02:48:07;;;;;;;5.30;4.80;;;;;;;14.43;100.00;101325.81;5043129;28;20647;-72
2021/07/08 02:50:35;;;;;;;6.63;5.40;;;;;;;14.43;100.00;101317.97;5046968;28;20221;-73
2021/07/08 02:53:02;;;;;;;5.63;5.13;;;;;;;14.47;100.00;101321.34;5045535;28;20219;-72
2021/07/08 02:55:28;;;;;;;5.90;5.17;;;;;;;14.55;100.00;101324.59;5045217;28;20236;-73
2021/07/08 02:57:55;;;;;;;5.90;5.30;;;;;;;14.58;100.00;101328.00;5044285;28;20202;-72
2021/07/08 03:00:24;;;;;;;6.23;5.63;;;;;;;14.54;100.00;101322.88;5047683;28;20212;-72
2021/07/08 03:02:50;;;;;;;6.50;5.67;;;;;;;14.52;100.00;101332.56;5043637;28;20709;-72
2021/07/08 03:05:18;;;;;;;5.80;5.30;;;;;;;14.50;100.00;101324.72;5040304;28;20238;-72
2021/07/08 03:07:45;;;;;;;6.40;5.67;;;;;;;14.61;100.00;101326.19;5044799;28;20705;-73
2021/07/08 03:10:14;;;;;;;7.10;6.20;;;;;;;14.58;100.00;101319.25;5045318;28;20218;-73
2021/07/08 03:12:41;;;;;;;5.93;5.33;;;;;;;14.60;100.00;101319.22;5043500;28;21222;-72
2021/07/08 03:15:10;;;;;;;6.20;5.60;;;;;;;14.61;100.00;101320.94;5044067;28;20222;-72
2021/07/08 03:17:36;;;;;;;6.00;5.40;;;;;;;14.63;100.00;101319.97;5038045;28;20202;-72
2021/07/08 03:20:04;;;;;;;6.70;5.90;;;;;;;14.62;100.00;101318.28;5042402;28;20587;-73
2021/07/08 03:22:32;;;;;;;6.83;5.97;;;;;;;14.68;100.00;101320.69;5040919;28;20715;-72
2021/07/08 03:24:58;;;;;;;6.93;6.00;;;;;;;14.71;100.00;101328.47;5042263;28;20221;-72
2021/07/08 03:27:25;;;;;;;6.43;5.83;;;;;;;14.78;100.00;101321.25;5046631;28;20207;-72
2021/07/08 03:29:51;;;;;;;8.00;6.20;;;;;;;14.78;100.00;101318.63;5045673;28;20209;-73
2021/07/08 03:32:17;;;;;;;6.63;5.47;;;;;;;14.80;100.00;101324.69;5046157;28;20573;-73
2021/07/08 03:34:44;;;;;;;6.23;5.60;;;;;;;14.83;100.00;101327.22;5045839;28;20231;-72
2021/07/08 03:37:10;;;;;;;6.80;6.07;;;;;;;14.89;100.00;101323.53;5043896;28;20218;-72
2021/07/08 03:39:38;;;;;;;6.80;6.20;;;;;;;14.93;100.00;101323.38;5043864;28;20227;-72
2021/07/08 03:42:05;;;;;;;6.30;5.53;;;;;;;14.96;100.00;101320.63;5045147;28;20199;-72
2021/07/08 03:44:31;;;;;;;6.90;5.83;;;;;;;15.02;100.00;101330.09;5048684;28;20245;-72
2021/07/08 03:46:58;;;;;;;6.87;6.17;;;;;;;15.07;100.00;101328.16;5048455;28;20212;-74
2021/07/08 03:49:24;;;;;;;7.30;5.60;;;;;;;15.10;100.00;101324.56;5044247;28;20210;-74
2021/07/08 03:51:50;;;;;;;6.87;6.03;;;;;;;15.20;100.00;101328.63;5044565;28;20211;-72
2021/07/08 03:54:17;;;;;;;6.73;6.07;;;;;;;15.24;100.00;101334.63;5038790;28;20302;-72
2021/07/08 03:56:44;;;;;;;6.73;5.97;;;;;;;15.30;100.00;101330.03;5038879;28;20209;-72
2021/07/08 03:59:11;;;;;;;6.37;5.63;;;;;;;15.40;100.00;101329.69;5045994;28;20218;-72
2021/07/08 04:01:39;;;;;;;7.73;6.30;;;;;;;15.53;100.00;101329.19;5042779;28;20209;-73
2021/07/08 04:04:05;;;;;;;7.20;5.37;;;;;;;15.51;100.00;101331.03;5045461;28;20223;-72
2021/07/08 04:06:32;;;;;;;7.77;6.03;;;;;;;15.60;100.00;101331.59;5043864;28;20214;-72
2021/07/08 04:08:58;;;;;;;7.93;5.67;;;;;;;15.66;100.00;101329.63;5043344;28;20211;-72
2021/07/08 04:11:24;;;;;;;6.17;5.43;;;;;;;15.72;100.00;101331.16;5048892;28;20211;-72
2021/07/08 04:13:52;;;;;;;6.17;5.57;;;;;;;15.84;100.00;101330.72;5035218;28;20246;-73
2021/07/08 04:16:18;;;;;;;6.63;5.30;;;;;;;15.95;100.00;101329.47;5044090;28;20662;-72
2021/07/08 04:18:45;;;;;;;5.63;5.10;;;;;;;16.08;100.00;101328.97;5042373;28;20210;-73
2021/07/08 04:21:12;;;;;;;4.93;4.40;;;;;;;16.20;100.00;101338.19;5044728;28;20202;-73
2021/07/08 04:23:38;;;;;;;4.77;4.30;;;;;;;16.28;100.00;101337.88;5043550;28;20236;-72
2021/07/08 04:26:04;;;;;;;4.83;4.30;;;;;;;16.38;100.00;101333.97;5043920;28;20202;-73
2021/07/08 04:28:31;;;;;;;5.20;4.70;;;;;;;16.43;100.00;101333.81;5040840;28;20207;-72
2021/07/08 04:31:00;;;;;;;4.87;4.37;;;;;;;16.53;100.00;101331.66;5047983;28;20210;-72
2021/07/08 04:33:27;;;;;;;5.10;4.57;;;;;;;16.58;100.00;101337.59;5044111;28;20226;-73
2021/07/08 04:35:53;;;;;;;5.07;3.70;;;;;;;16.68;100.00;101338.94;5048516;28;20211;-72
2021/07/08 04:38:21;;;;;;;4.10;3.60;;;;;;;16.87;100.00;101343.47;5047320;28;20211;-72
2021/07/08 04:40:47;;;;;;;5.10;3.97;;;;;;;17.05;100.00;101342.72;5044657;28;20235;-74
2021/07/08 04:43:14;;;;;;;4.17;3.77;;;;;;;17.23;99.26;101346.34;5048611;28;20199;-73
2021/07/08 04:45:42;;;;;;;4.93;3.60;;;;;;;17.40;97.80;101353.53;5047228;28;20241;-74
2021/07/08 04:48:13;;;;;;;4.53;3.80;;;;;;;17.57;96.68;101364.22;5045409;28;20199;-73
2021/07/08 04:50:39;;;;;;;3.37;3.07;;;;;;;17.70;94.05;101348.69;5047526;28;20222;-73
2021/07/08 04:53:05;;;;;;;3.33;2.93;;;;;;;17.83;95.13;101340.25;5048609;28;20660;-74
2021/07/08 04:55:32;;;;;;;3.13;2.83;;;;;;;17.92;95.38;101343.38;5045522;28;20760;-72
2021/07/08 04:57:59;;;;;;;2.93;2.70;;;;;;;17.98;94.08;101356.25;5044313;28;20195;-73
2021/07/08 05:00:26;;;;;;;2.87;2.40;;;;;;;18.10;93.81;101354.84;5045576;28;20207;-72
2021/07/08 05:02:55;;;;;;;3.10;2.40;;;;;;;18.23;93.48;101351.66;5047924;28;20223;-72
2021/07/08 05:05:23;;;;;;;3.07;2.77;;;;;;;18.33;92.76;101355.56;5043319;28;20224;-73
2021/07/08 05:07:51;;;;;;;2.67;2.40;;;;;;;18.32;91.58;101352.03;5046707;28;20320;-72
2021/07/08 05:10:18;;;;;;;3.43;2.80;;;;;;;18.30;91.07;101351.28;5044565;28;20627;-73
2021/07/08 05:12:45;;;;;;;2.90;2.53;;;;;;;18.27;91.10;101346.13;5047544;28;20735;-72
2021/07/08 05:15:14;;;;;;;2.47;2.27;;;;;;;18.30;91.82;101348.63;5042310;28;20260;-73
2021/07/08 05:17:40;;;;;;;3.60;2.77;;;;;;;18.38;90.31;101348.28;5046043;28;20229;-72
2021/07/08 05:20:08;;;;;;;2.67;2.40;;;;;;;18.61;90.00;101341.03;5048141;28;20208;-72
2021/07/08 05:22:37;;;;;;;2.77;2.30;;;;;;;18.72;87.19;101344.88;5048566;28;20659;-74
2021/07/08 05:25:06;;;;;;;2.50;2.30;;;;;;;18.95;87.50;101334.13;5046777;28;20219;-74
2021/07/08 05:27:32;;;;;;;3.47;2.00;;;;;;;19.06;85.99;101335.28;5044935;28;20211;-72
2021/07/08 05:30:00;;;;;;;2.20;2.00;;;;;;;19.32;85.84;101340.19;5038396;28;20217;-72
2021/07/08 05:32:26;;;;;;;2.23;2.03;;;;;;;19.52;84.33;101341.78;5042368;28;20210;-72
2021/07/08 05:34:53;;;;;;;2.00;1.90;;;;;;;19.66;83.03;101348.09;5045880;28;20250;-72
2021/07/08 05:37:19;;;;;;;2.83;2.27;;;;;;;19.64;81.53;101347.28;5045035;28;20266;-72
2021/07/08 05:39:47;;;;;;;2.20;2.00;;;;;;;19.77;82.11;101347.53;5045743;28;20325;-72
2021/07/08 05:42:13;;;;;;;2.93;1.87;;;;;;;19.80;82.87;101350.00;5042600;28;20211;-73
2021/07/08 05:44:39;;;;;;;1.93;1.53;;;;;;;19.75;81.57;101341.47;5046275;28;20244;-72
2021/07/08 05:47:06;;;;;;;1.80;1.70;;;;;;;19.68;81.94;101335.63;5045394;28;20294;-72
2021/07/08 05:49:32;;;;;;;2.10;1.90;;;;;;;19.72;82.30;101338.09;5044283;28;20211;-73
2021/07/08 05:51:59;;;;;;;2.87;1.97;;;;;;;19.78;82.70;101338.66;5046714;28;20207;-72
2021/07/08 05:54:25;;;;;;;3.27;2.40;;;;;;;19.89;81.67;101332.78;5045964;28;20235;-72
2021/07/08 05:56:53;;;;;;;3.63;2.20;;;;;;;19.91;80.84;101335.34;5044396;28;20192;-73
2021/07/08 05:59:20;;;;;;;2.60;2.40;;;;;;;19.91;82.07;101343.28;5041033;28;20810;-72
2021/07/08 06:01:46;;;;;;;3.43;2.13;;;;;;;19.89;82.84;101338.06;5040625;28;20523;-72
2021/07/08 06:04:12;;;;;;;3.00;2.70;;;;;;;19.81;83.22;101332.34;5046078;28;20258;-73
2021/07/08 06:06:39;;;;;;;3.57;3.27;;;;;;;19.76;82.26;101335.22;5045736;28;20201;-73
2021/07/08 06:09:05;;;;;;;4.60;3.57;;;;;;;19.79;82.99;101334.22;5042137;28;20211;-73
2021/07/08 06:11:31;;;;;;;3.87;3.40;;;;;;;19.75;82.80;101335.31;5046649;28;20206;-73
2021/07/08 06:13:59;;;;;;;4.40;3.20;;;;;;;19.81;82.70;101338.50;5044911;28;20816;-72
2021/07/08 06:16:26;;;;;;;3.57;3.03;;;;;;;19.86;83.67;101335.59;5046740;28;20210;-74
2021/07/08 06:18:52;;;;;;;4.80;2.80;;;;;;;19.94;82.48;101343.13;5044214;28;20680;-72
2021/07/08 06:21:18;;;;;;;3.07;2.77;;;;;;;20.06;83.23;101347.75;5046120;28;20737;-73
2021/07/08 06:23:45;;;;;;;3.47;2.90;;;;;;;20.16;82.36;101343.66;5045714;28;20313;-73
2021/07/08 06:26:11;;;;;;;3.30;3.00;;;;;;;20.12;81.75;101344.78;5042147;28;20219;-74
2021/07/08 06:28:41;;;;;;;3.30;3.00;;;;;;;20.10;80.66;101348.44;5046766;28;20195;-73
2021/07/08 06:31:09;;;;;;;3.20;2.90;;;;;;;20.08;81.02;101337.09;5046655;28;20250;-74
2021/07/08 06:33:35;;;;;;;4.90;2.87;;;;;;;20.13;81.20;101340.34;5052806;28;20230;-72
2021/07/08 06:36:01;;;;;;;3.33;2.80;;;;;;;20.15;81.00;101352.53;5042615;28;20223;-74
2021/07/08 06:38:28;;;;;;;3.20;2.57;;;;;;;20.19;80.78;101356.75;5044985;28;20206;-73
2021/07/08 06:40:54;;;;;;;2.60;2.40;;;;;;;20.29;80.12;101358.88;5045491;28;20202;-73
2021/07/08 06:43:21;;;;;;;3.17;2.10;;;;;;;20.32;79.17;101364.84;5046076;28;20213;-72
2021/07/08 06:45:47;;;;;;;2.57;2.00;;;;;;;20.29;79.06;101367.66;5044089;28;20203;-73
2021/07/08 06:48:15;;;;;;;1.97;1.80;;;;;;;20.24;79.69;101367.06;5044796;28;20207;-72
2021/07/08 06:50:43;;;;;;;1.60;1.50;;;;;;;20.33;78.68;101371.00;5044369;28;20199;-73
2021/07/08 06:53:10;;;;;;;1.70;1.60;;;;;;;20.35;78.46;101377.06;5043886;28;20328;-72
2021/07/08 06:55:38;;;;;;;1.70;1.60;;;;;;;20.40;78.76;101380.31;5044475;28;20277;-73
2021/07/08 06:58:05;;;;;;;1.90;1.70;;;;;;;20.46;77.39;101376.47;5042483;28;20246;-73
2021/07/08 07:00:33;;;;;;;2.00;1.80;;;;;;;20.52;77.25;101378.78;5045257;28;20584;-73
2021/07/08 07:03:01;;;;;;;1.60;1.50;;;;;;;20.59;77.24;101370.38;5045111;28;20207;-74
2021/07/08 07:05:29;;;;;;;1.93;1.57;;;;;;;20.70;78.56;101372.47;5045950;28;20223;-73
2021/07/08 07:07:57;;;;;;;1.43;1.33;;;;;;;20.67;76.04;101370.00;5040905;28;20215;-73
2021/07/08 07:10:25;;;;;;;1.57;1.47;;;;;;;20.68;76.71;101374.34;5044612;28;20213;-73
2021/07/08 07:12:53;;;;;;;1.47;1.30;;;;;;;20.64;76.33;101364.03;5043343;28;20216;-73
2021/07/08 07:15:22;;;;;;;1.33;1.23;;;;;;;20.55;75.54;101354.75;5045083;28;20218;-73
2021/07/08 07:17:48;;;;;;;1.30;1.20;;;;;;;20.52;75.09;101352.28;5038770;28;20675;-73
2021/07/08 07:20:16;;;;;;;1.40;1.30;;;;;;;20.40;76.32;101348.53;5038073;28;20195;-72
2021/07/08 07:22:45;;;;;;;1.90;1.60;;;;;;;20.30;77.27;101348.19;5045747;28;20290;-73
2021/07/08 07:25:13;;;;;;;2.17;1.90;;;;;;;20.23;78.17;101350.31;5041568;28;20216;-73
2021/07/08 07:27:39;;;;;;;1.87;1.50;;;;;;;20.19;78.82;101359.38;5042404;28;20195;-73
2021/07/08 07:30:07;;;;;;;1.97;1.67;;;;;;;20.16;79.36;101354.25;5043228;28;20208;-73
2021/07/08 07:32:34;;;;;;;3.00;1.60;;;;;;;20.10;78.67;101354.56;5045194;28;20199;-72
2021/07/08 07:35:01;;;;;;;1.90;1.57;;;;;;;20.00;78.10;101359.53;5043046;28;20416;-73
2021/07/08 07:37:28;;;;;;;2.23;1.63;;;;;;;19.85;78.48;101363.00;5043747;28;20614;-74
2021/07/08 07:39:56;;;;;;;1.90;1.73;;;;;;;19.81;78.65;101357.00;5041599;28;20242;-73
2021/07/08 07:42:23;;;;;;;1.77;1.67;;;;;;;19.78;78.27;101362.47;5043455;28;20774;-72
2021/07/08 07:44:50;;;;;;;1.50;1.40;;;;;;;19.65;79.03;101361.38;5041629;28;20224;-72
2021/07/08 07:47:17;;;;;;;2.33;1.60;;;;;;;19.62;79.56;101340.38;5044808;28;20286;-73
2021/07/08 07:49:44;;;;;;;1.90;1.80;;;;;;;19.53;79.61;101340.88;5042306;28;20208;-72
2021/07/08 07:52:13;;;;;;;1.83;1.73;;;;;;;19.49;79.71;101350.75;5044814;28;20743;-73
2021/07/08 07:54:40;;;;;;;1.70;1.60;;;;;;;19.44;79.59;101344.84;5043140;28;20226;-72
2021/07/08 07:57:08;;;;;;;2.10;1.90;;;;;;;19.37;79.85;101333.72;5044635;28;20211;-72
2021/07/08 07:59:35;;;;;;;1.93;1.83;;;;;;;19.33;80.10;101328.66;5045115;28;20207;-73
2021/07/08 08:02:02;;;;;;;2.03;1.80;;;;;;;19.28;79.75;101324.47;5043638;28;20208;-72
2021/07/08 08:04:31;;;;;;;2.77;2.20;;;;;;;19.28;80.14;101319.19;5047583;28;20634;-72
2021/07/08 08:09:43;;;;;;;2.10;2.00;;;;;;;19.22;80.94;101321.28;5045420;28;20207;-72
2021/07/08 08:12:11;;;;;;;2.53;2.33;;;;;;;19.23;81.23;101334.44;5046010;28;20614;-73
2021/07/08 08:14:37;;;;;;;4.03;2.20;;;;;;;19.22;80.93;101329.22;5047490;28;20297;-73
2021/07/08 08:17:05;;;;;;;3.63;2.33;;;;;;;19.22;80.51;101335.34;5040082;28;20206;-72
2021/07/08 08:19:31;;;;;;;2.50;2.30;;;;;;;19.23;81.31;101331.78;5043154;28;20207;-73
2021/07/08 08:21:58;;;;;;;3.43;2.43;;;;;;;19.28;81.76;101321.84;5046024;28;20211;-73
2021/07/08 08:24:24;;;;;;;2.73;2.40;;;;;;;19.33;83.05;101332.19;5051581;28;20322;-73
2021/07/08 08:26:52;;;;;;;4.53;2.73;;;;;;;19.35;81.36;101335.59;5048642;28;20203;-73
2021/07/08 08:29:20;;;;;;;3.80;2.60;;;;;;;19.38;81.39;101322.19;5047681;28;20302;-73
2021/07/08 08:31:47;;;;;;;2.93;2.63;;;;;;;19.40;81.75;101316.84;5045069;28;20212;-73
2021/07/08 08:34:13;;;;;;;3.20;2.90;;;;;;;19.41;81.52;101313.28;5042419;28;20336;-73
2021/07/08 08:36:40;;;;;;;5.87;2.70;;;;;;;19.37;81.35;101315.22;5044616;28;20225;-72
2021/07/08 08:39:06;;;;;;;2.70;2.50;;;;;;;19.41;82.13;101329.97;5046842;28;21045;-72
2021/07/08 08:41:34;;;;;;;4.23;2.43;;;;;;;19.37;82.26;101328.44;5046378;28;20199;-73
2021/07/08 08:44:02;;;;;;;2.73;2.53;;;;;;;19.35;82.68;101319.75;5045945;28;20268;-73
2021/07/08 08:46:33;;;;;;;2.83;2.60;;;;;;;19.35;82.48;101327.66;5046039;28;20781;-73
2021/07/08 08:48:59;;;;;;;2.60;2.40;;;;;;;19.30;82.31;101334.97;5042667;28;20207;-72
2021/07/08 08:51:26;;;;;;;2.10;2.00;;;;;;;19.28;82.61;101337.69;5045119;28;20207;-73
2021/07/08 08:53:53;;;;;;;2.50;2.30;;;;;;;19.28;82.20;101340.34;5039935;28;20230;-72
2021/07/08 08:56:19;;;;;;;3.23;2.07;;;;;;;19.28;81.67;101337.69;5042512;28;20227;-73
2021/07/08 08:58:46;;;;;;;2.67;2.23;;;;;;;19.33;81.53;101329.53;5047144;28;20207;-72
2021/07/08 09:01:16;;;;;;;2.60;2.00;;;;;;;19.38;81.36;101338.06;5047534;28;20676;-73
2021/07/08 09:03:45;;;;;;;1.90;1.67;;;;;;;19.40;79.96;101341.50;5044650;28;20253;-73
2021/07/08 09:06:13;;;;;;;2.13;1.93;;;;;;;19.51;80.25;101334.78;5046515;28;20245;-72
2021/07/08 09:08:44;;;;;;;2.63;2.00;;;;;;;19.62;79.21;101332.44;5043882;28;20739;-72
2021/07/08 09:11:16;;;;;;;1.93;1.67;;;;;;;19.75;80.04;101345.91;5040874;28;20775;-72
2021/07/08 09:13:55;;;;;;;2.13;1.60;;;;;;;19.91;80.28;101343.28;5040650;28;20254;-72
2021/07/08 09:16:24;;;;;;;1.63;1.53;;;;;;;20.06;80.78;101345.09;5046359;28;20222;-74
2021/07/08 09:19:00;;;;;;;2.10;1.90;;;;;;;20.13;76.85;101346.47;5047602;28;20256;-72
2021/07/08 09:21:28;;;;;;;2.80;1.87;;;;;;;20.12;77.08;101350.06;5042521;28;20269;-72
2021/07/08 09:24:06;;;;;;;1.93;1.70;;;;;;;20.17;77.15;101349.81;5046485;28;20245;-72
2021/07/08 09:26:33;;;;;;;2.00;1.80;;;;;;;20.21;76.82;101348.69;5045167;28;20358;-72
2021/07/08 09:29:05;;;;;;;1.80;1.70;;;;;;;20.22;76.64;101351.25;5045043;28;20210;-73
2021/07/08 09:31:32;;;;;;;1.87;1.77;;;;;;;20.19;76.08;101362.03;5043611;28;20200;-72
2021/07/08 09:34:13;;;;;;;2.03;1.80;;;;;;;20.25;76.92;101360.84;5042899;28;20230;-73
2021/07/08 09:36:39;;;;;;;2.13;1.90;;;;;;;20.26;76.93;101357.22;5046656;28;20223;-72
2021/07/08 09:39:07;;;;;;;1.80;1.70;;;;;;;20.27;76.42;101348.34;5040706;28;20722;-73
2021/07/08 09:41:33;;;;;;;2.10;1.90;;;;;;;20.32;76.64;101348.13;5048419;28;20260;-72
2021/07/08 09:44:00;;;;;;;1.83;1.73;;;;;;;20.39;75.98;101355.63;5043274;28;20231;-72
2021/07/08 09:46:35;;;;;;;2.33;1.80;;;;;;;20.46;76.43;101350.84;5047186;28;20310;-73
2021/07/08 09:49:05;;;;;;;2.00;1.80;;;;;;;20.52;75.71;101350.47;5039461;28;20207;-73
2021/07/08 09:51:33;;;;;;;2.20;2.00;;;;;;;20.57;77.08;101351.06;5045434;28;21042;-72
2021/07/08 09:54:07;;;;;;;1.83;1.70;;;;;;;20.60;75.51;101356.22;5042834;28;20723;-73
2021/07/08 09:56:48;;;;;;;2.20;2.00;;;;;;;20.59;76.43;101346.53;5041727;28;20296;-72
2021/07/08 09:59:16;;;;;;;2.33;1.73;;;;;;;20.64;76.58;101346.31;5044601;28;20257;-73
2021/07/08 10:01:44;;;;;;;1.73;1.63;;;;;;;20.60;74.81;101344.78;5039369;28;20200;-73
2021/07/08 10:04:12;;;;;;;2.17;1.70;;;;;;;20.72;75.59;101348.53;5045791;28;20238;-73
2021/07/08 10:06:39;;;;;;;2.23;2.03;;;;;;;20.75;74.63;101356.31;5047603;28;20195;-72
2021/07/08 10:09:07;;;;;;;2.43;2.13;;;;;;;20.76;75.40;101358.03;5044616;28;20715;-72
2021/07/08 10:11:34;;;;;;;1.70;1.60;;;;;;;20.72;74.61;101361.78;5041676;28;20203;-73
2021/07/08 10:14:03;;;;;;;2.00;1.80;;;;;;;20.78;75.40;101356.13;5045440;28;20227;-73
2021/07/08 10:16:33;;;;;;;2.07;1.87;;;;;;;20.90;74.62;101347.47;5039127;28;20242;-73
2021/07/08 10:19:03;;;;;;;2.03;1.80;;;;;;;21.18;76.16;101348.50;5043308;28;20207;-73
2021/07/08 10:21:31;;;;;;;2.27;1.90;;;;;;;21.42;75.48;101350.63;5049118;28;20225;-73
2021/07/08 10:24:00;;;;;;;4.13;1.83;;;;;;;21.60;74.25;101343.38;5042747;28;20281;-73
2021/07/08 10:26:27;;;;;;;2.00;1.77;;;;;;;21.68;72.29;101341.13;5044837;28;20198;-72
2021/07/08 10:28:56;;;;;;;2.80;2.00;;;;;;;21.72;71.59;101335.53;5042074;28;20207;-72
2021/07/08 10:31:23;;;;;;;3.17;1.70;;;;;;;21.89;71.62;101336.28;5045131;28;20206;-73
2021/07/08 10:34:15;;;;;;;1.95;1.75;;;;;;;21.98;72.09;101313.59;5042854;28;20774;-73
2021/07/08 10:36:45;;;;;;;1.98;1.80;;;;;;;22.22;70.46;101312.03;5025331;28;20235;-72
2021/07/08 10:39:15;;;;;;;2.10;1.90;;;;;;;22.27;69.87;101311.78;5041546;28;20211;-72
2021/07/08 10:41:44;;;;;;;2.47;1.65;;;;;;;22.42;69.41;101316.09;5043547;28;20204;-73
2021/07/08 10:44:40;;;;;;;2.58;2.00;;;;;;;22.37;69.28;101317.34;5044474;28;20312;-73
2021/07/08 10:47:07;;;;;;;1.92;1.83;;;;;;;22.38;68.89;101322.56;5041952;28;20211;-73
2021/07/08 10:49:38;;;;;;;1.95;1.85;;;;;;;22.45;68.83;101317.69;5045334;28;20203;-73
2021/07/08 10:52:08;;;;;;;2.50;1.80;;;;;;;22.54;69.55;101317.09;5042268;28;20199;-73
2021/07/08 10:54:35;;;;;;;2.90;1.88;;;;;;;22.38;67.74;101319.91;5046191;28;20218;-73
2021/07/08 10:57:03;;;;;;;2.65;1.95;;;;;;;22.39;67.75;101315.44;5038468;28;20575;-73
2021/07/08 10:59:41;;;;;;;2.13;2.03;;;;;;;22.32;67.73;101312.31;5044409;28;20200;-73
2021/07/08 11:02:08;;;;;;;2.22;2.03;;;;;;;22.44;68.87;101308.88;5043925;28;20598;-73
2021/07/08 11:04:47;;;;;;;2.17;1.90;;;;;;;22.55;68.05;101316.16;5040372;28;20246;-73
2021/07/08 11:07:19;;;;;;;1.92;1.83;;;;;;;22.45;68.21;101323.84;5044992;28;20249;-74
2021/07/08 11:09:56;;;;;;;1.90;1.80;;;;;;;22.56;68.37;101322.31;5042655;28;20655;-73
2021/07/08 11:12:31;;;;;;;2.60;1.80;;;;;;;22.35;67.82;101329.88;5040126;28;20195;-73
2021/07/08 11:14:58;;;;;;;2.10;2.00;;;;;;;22.41;68.24;101318.84;5042080;28;20849;-73
2021/07/08 11:17:25;;;;;;;2.10;1.90;;;;;;;22.49;69.41;101317.38;5040340;28;20214;-73
2021/07/08 11:19:54;;;;;;;2.20;2.00;;;;;;;22.66;69.35;101326.91;5043320;28;20625;-73
2021/07/08 11:22:37;;;;;;;1.90;1.80;;;;;;;22.79;67.63;101331.41;5043448;28;20199;-73
2021/07/08 11:25:08;;;;;;;2.10;1.90;;;;;;;22.86;67.19;101333.56;5042022;28;20272;-73
2021/07/08 11:27:43;;;;;;;3.63;1.70;;;;;;;22.88;68.26;101320.16;5040767;28;20251;-72